createdAt,value
2022-12-06T00:01:17.162Z,5.82
2022-12-06T00:03:47.281Z,5.10
2022-12-06T00:06:17.880Z,5.97
2022-12-06T00:08:47.216Z,5.55
2022-12-06T00:11:18.639Z,5.97
2022-12-06T00:13:47.560Z,5.25
2022-12-06T00:16:17.679Z,5.80
2022-12-06T00:18:48.029Z,5.80
2022-12-06T00:21:18.261Z,5.68
2022-12-06T00:23:48.730Z,5.72
2022-12-06T00:26:19.140Z,5.10
2022-12-06T00:28:47.460Z,5.70
2022-12-06T00:31:18.236Z,5.57
2022-12-06T00:33:46.550Z,5.40
2022-12-06T00:36:16.531Z,5.60
2022-12-06T00:38:44.584Z,5.30
2022-12-06T00:41:14.948Z,5.28
2022-12-06T00:43:44.601Z,5.28
2022-12-06T00:46:17.275Z,5.40
2022-12-06T00:48:45.878Z,5.40
2022-12-06T00:51:14.369Z,5.57
2022-12-06T00:53:42.679Z,5.25
2022-12-06T00:56:11.131Z,4.80
2022-12-06T00:58:39.560Z,4.97
2022-12-06T01:01:15.586Z,5.30
2022-12-06T01:03:44.821Z,4.90
2022-12-06T01:06:14.591Z,4.47
2022-12-06T01:08:43.803Z,4.93
2022-12-06T01:11:14.261Z,4.90
2022-12-06T01:13:42.380Z,4.10
2022-12-06T01:16:14.337Z,4.50
2022-12-06T01:18:43.368Z,4.10
2022-12-06T01:21:13.174Z,3.65
2022-12-06T01:23:41.226Z,4.55
2022-12-06T01:26:15.332Z,4.53
2022-12-06T01:28:43.235Z,4.50
2022-12-06T01:31:13.927Z,4.00
2022-12-06T01:33:41.908Z,3.95
2022-12-06T01:36:10.061Z,4.35
2022-12-06T01:38:38.014Z,4.10
2022-12-06T01:41:05.971Z,3.70
2022-12-06T01:43:37.273Z,4.57
2022-12-06T01:46:16.005Z,3.70
2022-12-06T01:48:44.148Z,3.88
2022-12-06T01:51:13.887Z,3.80
2022-12-06T01:53:44.644Z,3.60
2022-12-06T01:56:13.283Z,3.33
2022-12-06T01:58:44.268Z,3.80
2022-12-06T02:01:13.658Z,4.13
2022-12-06T02:03:41.872Z,4.25
2022-12-06T02:06:11.274Z,3.88
2022-12-06T02:08:39.910Z,3.67
2022-12-06T02:11:09.670Z,4.10
2022-12-06T02:13:38.174Z,3.80
2022-12-06T02:16:26.526Z,3.45
2022-12-06T02:19:04.091Z,3.42
2022-12-06T02:21:37.280Z,4.03
2022-12-06T02:24:38.022Z,3.30
2022-12-06T02:27:31.056Z,3.50
2022-12-06T02:30:09.049Z,3.50
2022-12-06T02:32:49.168Z,3.40
2022-12-06T02:35:28.576Z,3.50
2022-12-06T02:38:02.264Z,3.70
2022-12-06T02:40:36.373Z,3.35
2022-12-06T02:43:09.116Z,3.35
2022-12-06T02:45:42.620Z,3.20
2022-12-06T02:48:13.744Z,3.13
2022-12-06T02:50:45.940Z,3.30
2022-12-06T02:53:18.785Z,3.65
2022-12-06T02:55:47.579Z,3.30
2022-12-06T02:58:15.512Z,3.30
2022-12-06T03:00:45.388Z,3.13
2022-12-06T03:03:47.161Z,3.50
2022-12-06T03:06:51.918Z,3.47
2022-12-06T03:09:30.412Z,3.08
2022-12-06T03:12:04.240Z,3.33
2022-12-06T03:14:39.297Z,3.42
2022-12-06T03:17:16.869Z,3.00
2022-12-06T03:19:54.936Z,3.25
2022-12-06T03:22:27.746Z,2.88
2022-12-06T03:24:56.457Z,3.25
2022-12-06T03:27:26.360Z,2.90
2022-12-06T03:29:58.002Z,3.25
2022-12-06T03:32:31.817Z,3.10
2022-12-06T03:35:04.884Z,3.25
2022-12-06T03:37:34.323Z,3.28
2022-12-06T03:40:08.960Z,2.75
2022-12-06T03:42:37.792Z,2.90
2022-12-06T03:45:07.502Z,2.90
2022-12-06T03:47:39.000Z,3.20
2022-12-06T03:50:12.466Z,3.30
2022-12-06T03:52:40.634Z,3.10
2022-12-06T03:55:09.436Z,3.08
2022-12-06T03:57:37.424Z,3.30
2022-12-06T04:00:07.106Z,2.70
2022-12-06T04:02:35.021Z,2.70
2022-12-06T04:05:03.037Z,2.78
2022-12-06T04:07:32.417Z,3.00
2022-12-06T04:10:03.834Z,3.50
2022-12-06T04:12:49.828Z,2.75
2022-12-06T04:15:18.478Z,2.60
2022-12-06T04:18:03.740Z,3.13
2022-12-06T04:20:53.601Z,3.40
2022-12-06T04:23:22.031Z,3.00
2022-12-06T04:25:50.035Z,2.70
2022-12-06T04:28:35.703Z,3.10
2022-12-06T04:31:22.514Z,3.00
2022-12-06T04:34:08.252Z,3.00
2022-12-06T04:36:53.875Z,2.67
2022-12-06T04:39:23.253Z,2.75
2022-12-06T04:42:08.679Z,3.45
2022-12-06T04:44:36.710Z,3.00
2022-12-06T04:47:05.230Z,2.60
2022-12-06T04:49:33.888Z,3.03
2022-12-06T04:52:02.107Z,2.60
2022-12-06T04:54:31.485Z,2.25
2022-12-06T04:56:59.983Z,2.37
2022-12-06T04:59:28.785Z,2.55
2022-12-06T05:01:57.445Z,3.15
2022-12-06T05:04:25.436Z,3.00
2022-12-06T05:06:53.540Z,2.80
2022-12-06T05:09:21.598Z,2.88
2022-12-06T05:11:50.869Z,3.10
2022-12-06T05:14:18.801Z,2.80
2022-12-06T05:16:46.791Z,2.75
2022-12-06T05:19:15.736Z,2.60
2022-12-06T05:21:43.737Z,2.90
2022-12-06T05:24:11.746Z,2.42
2022-12-06T05:26:39.721Z,2.75
2022-12-06T05:29:09.218Z,2.67
2022-12-06T05:31:37.284Z,2.80
2022-12-06T05:34:05.228Z,2.80
2022-12-06T05:36:33.164Z,2.70
2022-12-06T05:39:01.103Z,2.50
2022-12-06T05:41:29.293Z,2.50
2022-12-06T05:43:57.135Z,3.20
2022-12-06T05:46:26.471Z,2.70
2022-12-06T05:48:54.403Z,2.40
2022-12-06T05:51:22.257Z,2.50
2022-12-06T05:53:50.192Z,3.20
2022-12-06T05:56:18.080Z,2.85
2022-12-06T05:58:46.255Z,2.50
2022-12-06T06:01:14.176Z,2.80
2022-12-06T06:03:47.501Z,2.70
2022-12-06T06:06:16.508Z,3.08
2022-12-06T06:08:44.401Z,3.17
2022-12-06T06:11:12.487Z,2.50
2022-12-06T06:13:40.429Z,2.97
2022-12-06T06:16:09.178Z,3.00
2022-12-06T06:18:37.267Z,2.80
2022-12-06T06:21:07.183Z,2.53
2022-12-06T06:23:35.296Z,2.80
2022-12-06T06:26:08.519Z,2.60
2022-12-06T06:28:36.481Z,2.95
2022-12-06T06:31:05.417Z,3.13
2022-12-06T06:33:33.687Z,2.80
2022-12-06T06:36:01.655Z,2.90
2022-12-06T06:38:30.885Z,2.97
2022-12-06T06:41:03.155Z,2.70
2022-12-06T06:43:31.317Z,2.40
2022-12-06T06:46:01.220Z,2.70
2022-12-06T06:48:30.643Z,3.00
2022-12-06T06:51:03.793Z,2.90
2022-12-06T06:53:33.171Z,3.20
2022-12-06T06:56:01.087Z,2.55
2022-12-06T06:58:29.092Z,2.85
2022-12-06T07:00:59.034Z,3.08
2022-12-06T07:03:28.396Z,2.40
2022-12-06T07:05:58.402Z,2.90
2022-12-06T07:08:27.435Z,2.30
2022-12-06T07:10:57.669Z,2.90
2022-12-06T07:13:27.275Z,2.80
2022-12-06T07:15:55.215Z,2.93
2022-12-06T07:18:23.266Z,3.10
2022-12-06T07:21:00.221Z,2.67
2022-12-06T07:23:28.350Z,3.70
2022-12-06T07:26:03.268Z,3.60
2022-12-06T07:28:31.523Z,3.70
2022-12-06T07:30:59.599Z,3.10
2022-12-06T07:33:27.539Z,3.22
2022-12-06T07:36:12.898Z,3.47
2022-12-06T07:38:42.172Z,3.57
2022-12-06T07:41:28.148Z,3.30
2022-12-06T07:44:14.689Z,3.47
2022-12-06T07:46:43.060Z,3.50
2022-12-06T07:49:11.456Z,3.70
2022-12-06T07:51:40.110Z,3.50
2022-12-06T07:54:08.109Z,3.20
2022-12-06T07:56:37.448Z,3.35
2022-12-06T07:59:05.963Z,4.22
2022-12-06T08:01:34.000Z,3.60
2022-12-06T08:04:03.338Z,3.55
2022-12-06T08:06:31.898Z,3.00
2022-12-06T08:08:59.958Z,4.28
2022-12-06T08:11:28.681Z,3.80
2022-12-06T08:13:58.065Z,3.40
2022-12-06T08:16:26.095Z,3.28
2022-12-06T08:18:54.052Z,3.10
2022-12-06T08:21:21.948Z,3.30
2022-12-06T08:23:49.954Z,3.45
2022-12-06T08:26:18.759Z,3.60
2022-12-06T08:28:46.847Z,3.78
2022-12-06T08:31:17.483Z,3.90
2022-12-06T08:33:45.829Z,3.80
2022-12-06T08:36:15.842Z,3.83
2022-12-06T08:38:44.374Z,4.47
2022-12-06T08:41:26.642Z,4.10
2022-12-06T08:43:54.853Z,3.90
2022-12-06T08:46:24.766Z,3.85
2022-12-06T08:48:53.117Z,3.90
2022-12-06T08:51:21.137Z,3.90
2022-12-06T08:53:49.085Z,3.88
2022-12-06T08:56:17.102Z,4.40
2022-12-06T08:58:45.064Z,4.00
2022-12-06T09:01:13.866Z,3.78
2022-12-06T09:03:43.235Z,4.30
2022-12-06T09:06:12.188Z,4.05
2022-12-06T09:08:40.562Z,4.40
2022-12-06T09:11:09.446Z,4.07
2022-12-06T09:13:38.586Z,4.57
2022-12-06T09:16:08.086Z,4.03
2022-12-06T09:18:36.100Z,4.35
2022-12-06T09:21:08.575Z,4.05
2022-12-06T09:23:37.425Z,4.20
2022-12-06T09:26:06.791Z,3.80
2022-12-06T09:28:36.485Z,4.13
2022-12-06T09:31:05.729Z,4.00
2022-12-06T09:33:33.798Z,4.20
2022-12-06T09:36:04.664Z,3.87
2022-12-06T09:38:36.881Z,3.75
2022-12-06T09:41:15.910Z,3.40
2022-12-06T09:43:57.156Z,4.30
2022-12-06T09:46:39.473Z,4.47
2022-12-06T09:49:26.317Z,3.70
2022-12-06T09:52:29.815Z,4.22
2022-12-06T09:55:19.461Z,4.25
2022-12-06T09:57:54.771Z,4.25
2022-12-06T10:00:24.770Z,4.25
2022-12-06T10:03:29.363Z,5.03
2022-12-06T10:06:02.786Z,5.20
2022-12-06T10:08:51.633Z,4.60
2022-12-06T10:11:39.238Z,4.50
2022-12-06T10:14:17.338Z,4.30
2022-12-06T10:16:56.793Z,4.80
2022-12-06T10:19:41.715Z,4.47
2022-12-06T10:22:14.597Z,4.15
2022-12-06T10:24:52.465Z,4.32
2022-12-06T10:27:37.624Z,4.40
2022-12-06T10:30:10.722Z,3.53
2022-12-06T10:32:55.853Z,4.30
2022-12-06T10:35:39.412Z,4.07
2022-12-06T10:38:17.872Z,4.30
2022-12-06T10:40:53.147Z,3.60
2022-12-06T10:43:29.210Z,3.65
2022-12-06T10:46:29.597Z,3.85
2022-12-06T10:49:06.958Z,4.10
2022-12-06T10:51:41.938Z,3.78
2022-12-06T10:54:20.024Z,3.75
2022-12-06T10:56:52.468Z,4.10
2022-12-06T10:59:30.895Z,4.43
2022-12-06T11:02:03.037Z,4.00
2022-12-06T11:04:35.759Z,3.90
2022-12-06T11:07:13.255Z,3.80
2022-12-06T11:09:42.941Z,3.87
2022-12-06T11:12:26.656Z,3.65
2022-12-06T11:15:05.690Z,3.10
2022-12-06T11:17:38.852Z,3.47
2022-12-06T11:20:19.441Z,3.30
2022-12-06T11:22:54.455Z,3.22
2022-12-06T11:25:28.129Z,2.80
2022-12-06T11:28:01.828Z,3.37
2022-12-06T11:30:33.800Z,2.83
2022-12-06T11:33:02.886Z,2.70
2022-12-06T11:35:30.969Z,2.83
2022-12-06T11:38:03.119Z,2.20
2022-12-06T11:40:32.840Z,2.13
2022-12-06T11:43:03.714Z,2.17
2022-12-06T11:45:34.585Z,2.10
2022-12-06T11:48:12.957Z,1.67
2022-12-06T11:50:43.592Z,1.70
2022-12-06T11:53:19.666Z,2.40
2022-12-06T11:55:51.946Z,2.40
2022-12-06T11:58:27.836Z,2.13
2022-12-06T12:01:02.674Z,1.98
2022-12-06T12:03:33.080Z,2.60
2022-12-06T12:06:17.852Z,2.10
2022-12-06T12:08:57.647Z,3.20
2022-12-06T12:11:29.075Z,2.60
2022-12-06T12:14:00.459Z,2.50
2022-12-06T12:16:31.777Z,2.70
2022-12-06T12:19:02.309Z,2.70
2022-12-06T12:21:41.053Z,2.80
2022-12-06T12:27:48.332Z,2.40
2022-12-06T12:30:25.659Z,2.55
2022-12-06T12:33:16.516Z,2.78
2022-12-06T12:35:46.759Z,2.50
2022-12-06T12:38:19.878Z,2.40
2022-12-06T12:40:51.026Z,2.50
2022-12-06T12:43:22.151Z,2.80
2022-12-06T12:46:15.624Z,2.90
2022-12-06T12:48:47.034Z,2.80
2022-12-06T12:51:29.285Z,2.97
2022-12-06T12:54:00.027Z,3.38
2022-12-06T12:56:29.732Z,3.10
2022-12-06T12:58:58.496Z,2.83
2022-12-06T13:01:37.560Z,2.70
2022-12-06T13:04:14.806Z,2.40
2022-12-06T13:06:49.275Z,2.60
2022-12-06T13:09:23.978Z,2.85
2022-12-06T13:11:57.632Z,2.90
2022-12-06T13:14:28.011Z,2.30
2022-12-06T13:16:59.907Z,2.50
2022-12-06T13:19:36.529Z,2.43
2022-12-06T13:22:06.086Z,2.00
2022-12-06T13:24:37.502Z,1.90
2022-12-06T13:27:13.504Z,1.90
2022-12-06T13:29:45.061Z,2.10
2022-12-06T13:32:17.910Z,1.80
2022-12-06T13:34:51.421Z,1.70
2022-12-06T13:37:30.745Z,2.15
2022-12-06T13:39:59.724Z,1.60
2022-12-06T13:42:46.607Z,1.40
2022-12-06T13:45:40.980Z,2.00
2022-12-06T13:48:38.763Z,1.40
2022-12-06T13:51:12.589Z,1.20
2022-12-06T13:54:17.968Z,1.52
2022-12-06T13:56:46.246Z,1.40
2022-12-06T13:59:40.113Z,1.60
2022-12-06T14:02:51.043Z,1.10
2022-12-06T14:08:20.738Z,1.30
2022-12-06T14:10:48.871Z,1.20
2022-12-06T14:13:18.965Z,1.10
2022-12-06T14:15:49.105Z,1.00
2022-12-06T14:18:26.517Z,1.20
2022-12-06T14:20:57.846Z,1.45
2022-12-06T14:23:30.224Z,1.13
2022-12-06T14:26:17.102Z,1.10
2022-12-06T14:28:45.074Z,1.30
2022-12-06T14:31:22.113Z,1.10
2022-12-06T14:33:50.642Z,1.20
2022-12-06T14:36:22.804Z,1.00
2022-12-06T14:38:59.396Z,1.00
2022-12-06T14:41:54.375Z,0.90
2022-12-06T14:44:28.599Z,1.40
2022-12-06T14:46:57.337Z,1.10
2022-12-06T14:49:43.892Z,1.10
2022-12-06T14:52:20.153Z,1.10
2022-12-06T14:54:50.063Z,1.10
2022-12-06T14:57:27.776Z,1.20
2022-12-06T15:03:26.468Z,1.02
2022-12-06T15:06:11.137Z,1.60
2022-12-06T15:08:40.630Z,1.33
2022-12-06T15:11:44.349Z,1.27
2022-12-06T15:14:14.785Z,1.10
2022-12-06T15:16:44.016Z,1.40
2022-12-06T15:19:14.294Z,1.50
2022-12-06T15:21:42.275Z,1.73
2022-12-06T15:24:18.941Z,1.40
2022-12-06T15:26:48.376Z,1.20
2022-12-06T15:29:16.669Z,1.20
2022-12-06T15:31:49.329Z,1.60
2022-12-06T15:34:23.848Z,1.52
2022-12-06T15:37:03.926Z,1.30
2022-12-06T15:39:41.177Z,1.20
2022-12-06T15:42:18.364Z,1.67
2022-12-06T15:44:49.399Z,1.50
2022-12-06T15:47:18.958Z,1.60
2022-12-06T15:49:47.131Z,1.33
2022-12-06T15:52:17.292Z,1.50
2022-12-06T15:54:45.292Z,1.80
2022-12-06T15:57:14.897Z,1.90
2022-12-06T15:59:42.887Z,2.08
2022-12-06T16:02:16.576Z,2.05
2022-12-06T16:04:45.667Z,1.70
2022-12-06T16:07:18.677Z,1.60
2022-12-06T16:09:47.169Z,1.67
2022-12-06T16:12:16.748Z,1.88
2022-12-06T16:14:44.689Z,1.70
2022-12-06T16:17:14.444Z,1.55
2022-12-06T16:19:59.967Z,1.40
2022-12-06T16:22:41.796Z,1.50
2022-12-06T16:25:10.345Z,1.63
2022-12-06T16:27:39.758Z,1.20
2022-12-06T16:30:09.158Z,1.40
2022-12-06T16:32:37.189Z,1.50
2022-12-06T16:35:05.617Z,1.10
2022-12-06T16:37:33.562Z,1.50
2022-12-06T16:40:01.644Z,1.10
2022-12-06T16:42:29.720Z,1.50
2022-12-06T16:44:59.185Z,1.60
2022-12-06T16:49:54.379Z,1.40
2022-12-06T16:52:22.416Z,1.23
2022-12-06T16:54:50.381Z,1.50
2022-12-06T16:57:19.626Z,1.23
2022-12-06T16:59:47.760Z,1.70
2022-12-06T17:02:26.354Z,1.40
2022-12-06T17:04:54.667Z,1.75
2022-12-06T17:07:22.695Z,1.83
2022-12-06T17:09:50.767Z,1.60
2022-12-06T17:12:19.122Z,2.00
2022-12-06T17:14:47.325Z,1.50
2022-12-06T17:17:17.023Z,1.55
2022-12-06T17:19:46.392Z,1.80
2022-12-06T17:22:16.629Z,1.77
2022-12-06T17:24:44.799Z,1.70
2022-12-06T17:27:14.733Z,2.17
2022-12-06T17:29:44.027Z,1.90
2022-12-06T17:32:12.353Z,1.60
2022-12-06T17:34:40.343Z,1.85
2022-12-06T17:37:09.719Z,2.05
2022-12-06T17:39:37.768Z,1.95
2022-12-06T17:42:24.083Z,1.80
2022-12-06T17:44:52.151Z,2.13
2022-12-06T17:47:20.556Z,1.75
2022-12-06T17:49:48.555Z,2.20
2022-12-06T17:52:18.331Z,2.30
2022-12-06T17:54:46.335Z,1.92
2022-12-06T17:57:17.996Z,2.15
2022-12-06T17:59:47.051Z,2.35
2022-12-06T18:02:16.774Z,2.00
2022-12-06T18:04:47.257Z,1.80
2022-12-06T18:07:17.803Z,1.88
2022-12-06T18:09:46.263Z,2.03
2022-12-06T18:12:15.752Z,2.25
2022-12-06T18:14:43.699Z,1.77
2022-12-06T18:17:12.031Z,1.80
2022-12-06T18:19:41.573Z,2.20
2022-12-06T18:22:09.577Z,2.60
2022-12-06T18:24:38.998Z,2.30
2022-12-06T18:27:08.043Z,2.65
2022-12-06T18:29:36.602Z,2.20
2022-12-06T18:32:05.066Z,2.33
2022-12-06T18:34:33.194Z,3.10
2022-12-06T18:37:01.288Z,2.45
2022-12-06T18:39:29.293Z,2.60
2022-12-06T18:41:58.607Z,2.73
2022-12-06T18:44:27.108Z,2.55
2022-12-06T18:46:55.078Z,3.00
2022-12-06T18:49:23.043Z,3.70
2022-12-06T18:51:51.078Z,3.40
2022-12-06T18:54:19.940Z,3.73
2022-12-06T18:56:47.961Z,4.97
2022-12-06T18:59:17.348Z,4.90
2022-12-06T19:01:45.389Z,4.55
2022-12-06T19:04:16.544Z,4.40
2022-12-06T19:06:45.461Z,4.25
2022-12-06T19:09:15.179Z,3.90
2022-12-06T19:11:45.790Z,4.00
2022-12-06T19:14:14.549Z,4.15
2022-12-06T19:16:45.999Z,4.78
2022-12-06T19:19:16.869Z,4.50
2022-12-06T19:21:46.611Z,5.20
2022-12-06T19:24:16.640Z,5.70
2022-12-06T19:26:45.234Z,6.10
2022-12-06T19:29:13.295Z,5.90
2022-12-06T19:31:41.282Z,7.20
2022-12-06T19:34:15.571Z,7.50
2022-12-06T19:36:43.731Z,7.30
2022-12-06T19:39:13.387Z,7.80
2022-12-06T19:41:55.647Z,7.38
2022-12-06T19:44:23.855Z,7.35
2022-12-06T19:46:52.489Z,6.95
2022-12-06T19:49:23.294Z,7.40
2022-12-06T19:51:52.428Z,6.97
2022-12-06T19:54:22.543Z,6.73
2022-12-06T19:56:53.076Z,6.15
2022-12-06T19:59:21.236Z,6.57
2022-12-06T20:01:50.219Z,6.68
2022-12-06T20:04:19.859Z,6.90
2022-12-06T20:06:49.267Z,7.25
2022-12-06T20:09:18.137Z,7.67
2022-12-06T20:12:05.479Z,7.18
2022-12-06T20:14:39.490Z,7.20
2022-12-06T20:17:09.369Z,6.72
2022-12-06T20:19:38.298Z,6.50
2022-12-06T20:22:07.683Z,5.63
2022-12-06T20:24:35.694Z,6.97
2022-12-06T20:27:03.934Z,7.40
2022-12-06T20:29:32.694Z,7.20
2022-12-06T20:32:01.572Z,7.55
2022-12-06T20:34:33.890Z,6.95
2022-12-06T20:37:04.082Z,7.60
2022-12-06T20:39:35.274Z,7.57
2022-12-06T20:42:05.354Z,6.93
2022-12-06T20:44:33.512Z,6.80
2022-12-06T20:47:01.509Z,7.35
2022-12-06T20:49:29.652Z,7.03
2022-12-06T20:51:59.553Z,7.00
2022-12-06T20:54:27.576Z,6.97
2022-12-06T20:56:56.976Z,7.90
2022-12-06T20:59:24.932Z,7.93
2022-12-06T21:01:52.989Z,7.90
2022-12-06T21:04:21.047Z,7.40
2022-12-06T21:06:49.113Z,7.85
2022-12-06T21:09:17.191Z,7.80
2022-12-06T21:11:45.237Z,7.40
2022-12-06T21:14:16.081Z,7.35
2022-12-06T21:16:44.903Z,7.70
2022-12-06T21:19:15.763Z,7.70
2022-12-06T21:21:47.206Z,6.90
2022-12-06T21:24:17.708Z,7.07
2022-12-06T21:26:45.927Z,6.60
2022-12-06T21:29:17.581Z,7.43
2022-12-06T21:31:46.362Z,6.40
2022-12-06T21:34:15.265Z,7.65
2022-12-06T21:36:43.636Z,7.60
2022-12-06T21:39:12.478Z,7.55
2022-12-06T21:41:40.689Z,7.93
2022-12-06T21:44:08.759Z,7.45
2022-12-06T21:46:38.243Z,7.03
2022-12-06T21:49:06.227Z,7.35
2022-12-06T21:51:34.269Z,7.80
2022-12-06T21:54:02.237Z,6.72
2022-12-06T21:56:32.745Z,7.50
2022-12-06T21:59:01.464Z,6.90
2022-12-06T22:01:31.299Z,6.15
2022-12-06T22:04:03.712Z,6.78
2022-12-06T22:06:32.555Z,6.27
2022-12-06T22:09:03.002Z,5.70
2022-12-06T22:11:31.275Z,5.90
2022-12-06T22:13:59.937Z,6.03
2022-12-06T22:16:28.751Z,5.90
2022-12-06T22:18:57.233Z,5.50
2022-12-06T22:21:28.341Z,5.45
2022-12-06T22:23:57.974Z,5.10
2022-12-06T22:26:28.268Z,5.32
2022-12-06T22:28:56.815Z,5.60
2022-12-06T22:31:27.108Z,5.05
2022-12-06T22:33:57.024Z,5.50
2022-12-06T22:36:27.137Z,5.95
2022-12-06T22:38:57.235Z,5.05
2022-12-06T22:41:26.159Z,5.53
2022-12-06T22:43:55.448Z,5.90
2022-12-06T22:46:26.207Z,5.70
2022-12-06T22:48:55.279Z,5.68
2022-12-06T22:51:27.037Z,5.28
2022-12-06T22:53:57.069Z,5.90
2022-12-06T22:56:25.994Z,6.10
2022-12-06T22:58:54.674Z,5.30
2022-12-06T23:01:25.487Z,5.57
2022-12-06T23:03:54.593Z,5.47
2022-12-06T23:06:25.124Z,5.47
2022-12-06T23:08:55.422Z,5.72
2022-12-06T23:11:26.052Z,6.35
2022-12-06T23:13:55.253Z,5.75
2022-12-06T23:16:24.907Z,5.50
2022-12-06T23:18:53.045Z,5.00
2022-12-06T23:21:22.389Z,5.00
2022-12-06T23:23:51.792Z,5.10
2022-12-06T23:26:22.569Z,5.70
2022-12-06T23:28:50.864Z,4.50
2022-12-06T23:31:21.205Z,4.47
2022-12-06T23:33:52.832Z,4.60
2022-12-06T23:36:22.890Z,4.70
2022-12-06T23:38:51.056Z,4.32
2022-12-06T23:41:22.144Z,4.85
2022-12-06T23:43:50.371Z,4.15
2022-12-06T23:46:22.403Z,4.00
2022-12-06T23:48:50.849Z,3.63
2022-12-06T23:51:21.380Z,3.70
2022-12-06T23:53:51.672Z,3.97
2022-12-06T23:56:22.695Z,3.40
2022-12-06T23:58:51.520Z,3.60
